sensor_id;sensor_type;location;lat;lon;timestamp;temperature;humidity
14099;DHT22;7126;48.458;7.930;2023-05-07T00:01:50;16.10;99.90
14099;DHT22;7126;48.458;7.930;2023-05-07T00:04:15;16.00;99.90
14099;DHT22;7126;48.458;7.930;2023-05-07T00:06:41;16.00;99.90
14099;DHT22;7126;48.458;7.930;2023-05-07T00:09:06;16.00;99.90
14099;DHT22;7126;48.458;7.930;2023-05-07T00:11:32;16.00;99.90
14099;DHT22;7126;48.458;7.930;2023-05-07T00:13:58;16.00;99.90
14099;DHT22;7126;48.458;7.930;2023-05-07T00:16:24;15.90;99.90
14099;DHT22;7126;48.458;7.930;2023-05-07T00:18:49;15.90;99.90
14099;DHT22;7126;48.458;7.930;2023-05-07T00:21:15;15.90;99.90
14099;DHT22;7126;48.458;7.930;2023-05-07T00:23:41;15.80;99.90
14099;DHT22;7126;48.458;7.930;2023-05-07T00:26:07;15.80;99.90
14099;DHT22;7126;48.458;7.930;2023-05-07T00:28:32;15.70;99.90
14099;DHT22;7126;48.458;7.930;2023-05-07T00:30:58;15.80;99.90
14099;DHT22;7126;48.458;7.930;2023-05-07T00:33:23;15.80;99.90
14099;DHT22;7126;48.458;7.930;2023-05-07T00:35:49;15.70;99.90
14099;DHT22;7126;48.458;7.930;2023-05-07T00:38:14;15.70;99.90
14099;DHT22;7126;48.458;7.930;2023-05-07T00:40:40;15.80;99.90
14099;DHT22;7126;48.458;7.930;2023-05-07T00:43:06;15.80;99.90
14099;DHT22;7126;48.458;7.930;2023-05-07T00:45:33;15.80;99.90
14099;DHT22;7126;48.458;7.930;2023-05-07T00:48:00;15.80;99.90
14099;DHT22;7126;48.458;7.930;2023-05-07T00:50:27;15.70;99.90
14099;DHT22;7126;48.458;7.930;2023-05-07T00:52:53;15.80;99.90
14099;DHT22;7126;48.458;7.930;2023-05-07T00:55:18;15.80;99.90
14099;DHT22;7126;48.458;7.930;2023-05-07T00:57:45;15.70;99.90
14099;DHT22;7126;48.458;7.930;2023-05-07T01:00:11;15.80;99.90
14099;DHT22;7126;48.458;7.930;2023-05-07T01:02:40;15.80;99.90
14099;DHT22;7126;48.458;7.930;2023-05-07T01:05:09;15.80;99.90
14099;DHT22;7126;48.458;7.930;2023-05-07T01:07:37;15.80;99.90
14099;DHT22;7126;48.458;7.930;2023-05-07T01:10:04;15.70;99.90
14099;DHT22;7126;48.458;7.930;2023-05-07T01:12:31;15.70;99.90
14099;DHT22;7126;48.458;7.930;2023-05-07T01:14:57;15.70;99.90
14099;DHT22;7126;48.458;7.930;2023-05-07T01:17:23;15.60;99.90
14099;DHT22;7126;48.458;7.930;2023-05-07T01:19:49;15.50;99.90
14099;DHT22;7126;48.458;7.930;2023-05-07T01:22:16;15.50;99.90
14099;DHT22;7126;48.458;7.930;2023-05-07T01:24:45;15.40;99.90
14099;DHT22;7126;48.458;7.930;2023-05-07T01:27:10;15.40;99.90
14099;DHT22;7126;48.458;7.930;2023-05-07T01:29:36;15.40;99.90
14099;DHT22;7126;48.458;7.930;2023-05-07T01:32:02;15.30;99.90
14099;DHT22;7126;48.458;7.930;2023-05-07T01:34:32;15.40;99.90
14099;DHT22;7126;48.458;7.930;2023-05-07T01:36:58;15.40;99.90
14099;DHT22;7126;48.458;7.930;2023-05-07T01:39:26;15.40;99.90
14099;DHT22;7126;48.458;7.930;2023-05-07T01:41:57;15.40;99.90
14099;DHT22;7126;48.458;7.930;2023-05-07T01:44:24;15.40;99.90
14099;DHT22;7126;48.458;7.930;2023-05-07T01:46:51;15.40;99.90
14099;DHT22;7126;48.458;7.930;2023-05-07T01:49:17;15.40;99.90
14099;DHT22;7126;48.458;7.930;2023-05-07T01:51:43;15.40;99.90
14099;DHT22;7126;48.458;7.930;2023-05-07T01:54:09;15.40;99.90
14099;DHT22;7126;48.458;7.930;2023-05-07T01:56:35;15.40;99.90
14099;DHT22;7126;48.458;7.930;2023-05-07T01:59:00;15.40;99.90
14099;DHT22;7126;48.458;7.930;2023-05-07T02:01:27;15.30;99.90
14099;DHT22;7126;48.458;7.930;2023-05-07T02:03:53;15.30;99.90
14099;DHT22;7126;48.458;7.930;2023-05-07T02:06:19;15.20;99.90
14099;DHT22;7126;48.458;7.930;2023-05-07T02:08:45;15.30;99.90
14099;DHT22;7126;48.458;7.930;2023-05-07T02:11:10;15.20;99.90
14099;DHT22;7126;48.458;7.930;2023-05-07T02:13:36;15.20;99.90
14099;DHT22;7126;48.458;7.930;2023-05-07T02:16:02;15.10;99.90
14099;DHT22;7126;48.458;7.930;2023-05-07T02:18:27;15.10;99.90
14099;DHT22;7126;48.458;7.930;2023-05-07T02:20:53;15.10;99.90
14099;DHT22;7126;48.458;7.930;2023-05-07T02:23:19;15.10;99.90
14099;DHT22;7126;48.458;7.930;2023-05-07T02:25:44;15.00;99.90
14099;DHT22;7126;48.458;7.930;2023-05-07T02:28:10;15.00;99.90
14099;DHT22;7126;48.458;7.930;2023-05-07T02:30:38;15.00;99.90
14099;DHT22;7126;48.458;7.930;2023-05-07T02:33:04;15.00;99.90
14099;DHT22;7126;48.458;7.930;2023-05-07T02:35:30;15.00;99.90
14099;DHT22;7126;48.458;7.930;2023-05-07T02:37:55;15.00;99.90
14099;DHT22;7126;48.458;7.930;2023-05-07T02:40:21;15.00;99.90
14099;DHT22;7126;48.458;7.930;2023-05-07T02:42:46;14.90;99.90
14099;DHT22;7126;48.458;7.930;2023-05-07T02:45:12;14.90;99.90
14099;DHT22;7126;48.458;7.930;2023-05-07T02:47:38;14.80;99.90
14099;DHT22;7126;48.458;7.930;2023-05-07T02:50:04;14.70;99.90
14099;DHT22;7126;48.458;7.930;2023-05-07T02:52:29;14.70;99.90
14099;DHT22;7126;48.458;7.930;2023-05-07T02:54:55;14.70;99.90
14099;DHT22;7126;48.458;7.930;2023-05-07T02:57:20;14.70;99.90
14099;DHT22;7126;48.458;7.930;2023-05-07T02:59:46;14.70;99.90
14099;DHT22;7126;48.458;7.930;2023-05-07T03:02:11;14.70;99.90
14099;DHT22;7126;48.458;7.930;2023-05-07T03:04:38;14.70;99.90
14099;DHT22;7126;48.458;7.930;2023-05-07T03:07:04;14.60;99.90
14099;DHT22;7126;48.458;7.930;2023-05-07T03:09:29;14.60;99.90
14099;DHT22;7126;48.458;7.930;2023-05-07T03:11:56;14.60;99.90
14099;DHT22;7126;48.458;7.930;2023-05-07T03:14:22;14.70;99.90
14099;DHT22;7126;48.458;7.930;2023-05-07T03:16:48;14.60;99.90
14099;DHT22;7126;48.458;7.930;2023-05-07T03:19:14;14.60;99.90
14099;DHT22;7126;48.458;7.930;2023-05-07T03:21:39;14.60;99.90
14099;DHT22;7126;48.458;7.930;2023-05-07T03:24:05;14.60;99.90
14099;DHT22;7126;48.458;7.930;2023-05-07T03:26:31;14.50;99.90
14099;DHT22;7126;48.458;7.930;2023-05-07T03:28:56;14.50;99.90
14099;DHT22;7126;48.458;7.930;2023-05-07T03:31:22;14.50;99.90
14099;DHT22;7126;48.458;7.930;2023-05-07T03:33:55;14.50;99.90
14099;DHT22;7126;48.458;7.930;2023-05-07T03:36:21;14.50;99.90
14099;DHT22;7126;48.458;7.930;2023-05-07T03:38:47;14.40;99.90
14099;DHT22;7126;48.458;7.930;2023-05-07T03:41:13;14.40;99.90
14099;DHT22;7126;48.458;7.930;2023-05-07T03:43:39;14.40;99.90
14099;DHT22;7126;48.458;7.930;2023-05-07T03:46:05;14.40;99.90
14099;DHT22;7126;48.458;7.930;2023-05-07T03:48:30;14.50;99.90
14099;DHT22;7126;48.458;7.930;2023-05-07T03:50:57;14.40;99.90
14099;DHT22;7126;48.458;7.930;2023-05-07T03:53:23;14.40;99.90
14099;DHT22;7126;48.458;7.930;2023-05-07T03:55:48;14.30;99.90
14099;DHT22;7126;48.458;7.930;2023-05-07T03:58:15;14.30;99.90
14099;DHT22;7126;48.458;7.930;2023-05-07T04:00:41;14.30;99.90
14099;DHT22;7126;48.458;7.930;2023-05-07T04:03:07;14.30;99.90
14099;DHT22;7126;48.458;7.930;2023-05-07T04:05:32;14.20;99.90
14099;DHT22;7126;48.458;7.930;2023-05-07T04:07:59;14.20;99.90
14099;DHT22;7126;48.458;7.930;2023-05-07T04:10:25;14.10;99.90
14099;DHT22;7126;48.458;7.930;2023-05-07T04:12:51;14.10;99.90
14099;DHT22;7126;48.458;7.930;2023-05-07T04:15:17;14.10;99.90
14099;DHT22;7126;48.458;7.930;2023-05-07T04:17:42;14.10;99.90
14099;DHT22;7126;48.458;7.930;2023-05-07T04:20:16;14.20;99.90
14099;DHT22;7126;48.458;7.930;2023-05-07T04:22:43;14.10;99.90
14099;DHT22;7126;48.458;7.930;2023-05-07T04:25:09;14.10;99.90
14099;DHT22;7126;48.458;7.930;2023-05-07T04:27:35;14.00;99.90
14099;DHT22;7126;48.458;7.930;2023-05-07T04:30:02;14.00;99.90
14099;DHT22;7126;48.458;7.930;2023-05-07T04:32:28;14.00;99.90
14099;DHT22;7126;48.458;7.930;2023-05-07T04:34:55;14.10;99.90
14099;DHT22;7126;48.458;7.930;2023-05-07T04:37:20;14.10;99.90
14099;DHT22;7126;48.458;7.930;2023-05-07T04:39:46;14.20;99.90
14099;DHT22;7126;48.458;7.930;2023-05-07T04:42:17;14.20;99.90
14099;DHT22;7126;48.458;7.930;2023-05-07T04:44:44;14.20;99.90
14099;DHT22;7126;48.458;7.930;2023-05-07T04:47:10;14.30;99.90
14099;DHT22;7126;48.458;7.930;2023-05-07T04:49:37;14.50;99.90
14099;DHT22;7126;48.458;7.930;2023-05-07T04:52:03;14.50;99.90
14099;DHT22;7126;48.458;7.930;2023-05-07T04:54:29;14.50;99.90
14099;DHT22;7126;48.458;7.930;2023-05-07T04:56:55;14.50;99.90
14099;DHT22;7126;48.458;7.930;2023-05-07T04:59:20;14.60;99.90
14099;DHT22;7126;48.458;7.930;2023-05-07T05:01:46;14.70;99.90
14099;DHT22;7126;48.458;7.930;2023-05-07T05:04:12;14.80;99.90
14099;DHT22;7126;48.458;7.930;2023-05-07T05:06:38;14.80;99.90
14099;DHT22;7126;48.458;7.930;2023-05-07T05:09:03;14.80;99.90
14099;DHT22;7126;48.458;7.930;2023-05-07T05:11:30;14.80;99.90
14099;DHT22;7126;48.458;7.930;2023-05-07T05:13:56;14.90;99.90
14099;DHT22;7126;48.458;7.930;2023-05-07T05:16:22;14.90;99.90
14099;DHT22;7126;48.458;7.930;2023-05-07T05:18:47;15.00;99.90
14099;DHT22;7126;48.458;7.930;2023-05-07T05:21:13;15.00;99.90
14099;DHT22;7126;48.458;7.930;2023-05-07T05:23:38;15.00;99.90
14099;DHT22;7126;48.458;7.930;2023-05-07T05:26:04;15.10;99.90
14099;DHT22;7126;48.458;7.930;2023-05-07T05:28:30;15.00;99.90
14099;DHT22;7126;48.458;7.930;2023-05-07T05:30:55;15.00;99.90
14099;DHT22;7126;48.458;7.930;2023-05-07T05:33:21;15.10;99.90
14099;DHT22;7126;48.458;7.930;2023-05-07T05:35:46;15.00;99.90
14099;DHT22;7126;48.458;7.930;2023-05-07T05:38:12;15.00;99.90
14099;DHT22;7126;48.458;7.930;2023-05-07T05:40:38;15.00;99.90
14099;DHT22;7126;48.458;7.930;2023-05-07T05:43:04;15.00;99.90
14099;DHT22;7126;48.458;7.930;2023-05-07T05:45:29;14.90;99.90
14099;DHT22;7126;48.458;7.930;2023-05-07T05:47:56;15.00;99.90
14099;DHT22;7126;48.458;7.930;2023-05-07T05:50:22;15.00;99.90
14099;DHT22;7126;48.458;7.930;2023-05-07T05:52:47;15.00;99.90
14099;DHT22;7126;48.458;7.930;2023-05-07T05:55:13;15.10;99.90
14099;DHT22;7126;48.458;7.930;2023-05-07T05:57:39;15.10;99.90
14099;DHT22;7126;48.458;7.930;2023-05-07T06:00:05;15.20;99.90
14099;DHT22;7126;48.458;7.930;2023-05-07T06:02:31;15.30;99.90
14099;DHT22;7126;48.458;7.930;2023-05-07T06:04:57;15.40;99.90
14099;DHT22;7126;48.458;7.930;2023-05-07T06:07:22;15.40;99.90
14099;DHT22;7126;48.458;7.930;2023-05-07T06:09:48;15.50;99.90
14099;DHT22;7126;48.458;7.930;2023-05-07T06:12:13;15.60;99.90
14099;DHT22;7126;48.458;7.930;2023-05-07T06:14:39;15.70;99.90
14099;DHT22;7126;48.458;7.930;2023-05-07T06:17:06;15.70;99.90
14099;DHT22;7126;48.458;7.930;2023-05-07T06:19:32;15.60;99.90
14099;DHT22;7126;48.458;7.930;2023-05-07T06:21:57;15.60;99.90
14099;DHT22;7126;48.458;7.930;2023-05-07T06:24:23;15.70;99.90
14099;DHT22;7126;48.458;7.930;2023-05-07T06:26:49;15.70;99.90
14099;DHT22;7126;48.458;7.930;2023-05-07T06:29:15;15.80;99.90
14099;DHT22;7126;48.458;7.930;2023-05-07T06:31:40;15.80;99.90
14099;DHT22;7126;48.458;7.930;2023-05-07T06:34:07;15.90;99.90
14099;DHT22;7126;48.458;7.930;2023-05-07T06:36:33;16.00;99.90
14099;DHT22;7126;48.458;7.930;2023-05-07T06:38:58;16.10;99.90
14099;DHT22;7126;48.458;7.930;2023-05-07T06:41:24;16.10;99.90
14099;DHT22;7126;48.458;7.930;2023-05-07T06:43:49;16.20;99.90
14099;DHT22;7126;48.458;7.930;2023-05-07T06:46:16;16.30;99.90
14099;DHT22;7126;48.458;7.930;2023-05-07T06:48:41;16.40;99.90
14099;DHT22;7126;48.458;7.930;2023-05-07T06:51:07;16.40;99.90
14099;DHT22;7126;48.458;7.930;2023-05-07T06:53:32;16.40;99.90
14099;DHT22;7126;48.458;7.930;2023-05-07T06:55:58;16.40;99.90
14099;DHT22;7126;48.458;7.930;2023-05-07T06:58:23;16.40;99.90
14099;DHT22;7126;48.458;7.930;2023-05-07T07:00:49;16.50;99.90
14099;DHT22;7126;48.458;7.930;2023-05-07T07:03:15;16.60;99.90
14099;DHT22;7126;48.458;7.930;2023-05-07T07:05:41;16.70;99.90
14099;DHT22;7126;48.458;7.930;2023-05-07T07:08:06;16.70;99.90
14099;DHT22;7126;48.458;7.930;2023-05-07T07:10:32;16.80;99.90
14099;DHT22;7126;48.458;7.930;2023-05-07T07:12:58;16.90;99.90
14099;DHT22;7126;48.458;7.930;2023-05-07T07:15:23;16.90;99.90
14099;DHT22;7126;48.458;7.930;2023-05-07T07:17:50;16.90;99.90
14099;DHT22;7126;48.458;7.930;2023-05-07T07:20:16;16.90;99.90
14099;DHT22;7126;48.458;7.930;2023-05-07T07:22:42;17.00;99.90
14099;DHT22;7126;48.458;7.930;2023-05-07T07:25:08;17.10;99.90
14099;DHT22;7126;48.458;7.930;2023-05-07T07:27:34;17.20;99.90
14099;DHT22;7126;48.458;7.930;2023-05-07T07:29:59;17.30;99.90
14099;DHT22;7126;48.458;7.930;2023-05-07T07:32:25;17.30;99.90
14099;DHT22;7126;48.458;7.930;2023-05-07T07:34:51;17.40;99.90
14099;DHT22;7126;48.458;7.930;2023-05-07T07:37:16;17.40;99.90
14099;DHT22;7126;48.458;7.930;2023-05-07T07:39:42;17.40;99.90
14099;DHT22;7126;48.458;7.930;2023-05-07T07:42:08;17.50;99.90
14099;DHT22;7126;48.458;7.930;2023-05-07T07:44:33;17.70;99.90
14099;DHT22;7126;48.458;7.930;2023-05-07T07:46:59;17.80;99.90
14099;DHT22;7126;48.458;7.930;2023-05-07T07:49:25;17.90;99.90
14099;DHT22;7126;48.458;7.930;2023-05-07T07:51:50;18.00;99.90
14099;DHT22;7126;48.458;7.930;2023-05-07T07:54:16;18.10;99.90
14099;DHT22;7126;48.458;7.930;2023-05-07T07:56:42;18.30;99.90
14099;DHT22;7126;48.458;7.930;2023-05-07T07:59:07;18.40;99.90
14099;DHT22;7126;48.458;7.930;2023-05-07T08:01:33;18.60;99.90
14099;DHT22;7126;48.458;7.930;2023-05-07T08:03:59;18.70;99.90
14099;DHT22;7126;48.458;7.930;2023-05-07T08:06:24;18.80;99.90
14099;DHT22;7126;48.458;7.930;2023-05-07T08:08:51;18.80;99.90
14099;DHT22;7126;48.458;7.930;2023-05-07T08:11:17;18.70;99.90
14099;DHT22;7126;48.458;7.930;2023-05-07T08:13:42;18.70;99.90
14099;DHT22;7126;48.458;7.930;2023-05-07T08:16:08;18.70;99.90
14099;DHT22;7126;48.458;7.930;2023-05-07T08:18:34;18.70;99.90
14099;DHT22;7126;48.458;7.930;2023-05-07T08:21:01;18.80;99.90
14099;DHT22;7126;48.458;7.930;2023-05-07T08:23:26;19.00;99.90
14099;DHT22;7126;48.458;7.930;2023-05-07T08:25:53;19.10;99.90
14099;DHT22;7126;48.458;7.930;2023-05-07T08:28:19;19.10;99.90
14099;DHT22;7126;48.458;7.930;2023-05-07T08:30:46;19.10;99.90
14099;DHT22;7126;48.458;7.930;2023-05-07T08:33:12;19.10;99.90
14099;DHT22;7126;48.458;7.930;2023-05-07T08:35:37;19.20;99.90
14099;DHT22;7126;48.458;7.930;2023-05-07T08:38:03;19.20;99.90
14099;DHT22;7126;48.458;7.930;2023-05-07T08:40:29;19.30;99.90
14099;DHT22;7126;48.458;7.930;2023-05-07T08:42:56;19.30;99.90
14099;DHT22;7126;48.458;7.930;2023-05-07T08:45:23;19.40;99.90
14099;DHT22;7126;48.458;7.930;2023-05-07T08:47:54;19.50;99.90
14099;DHT22;7126;48.458;7.930;2023-05-07T08:50:21;19.70;99.90
14099;DHT22;7126;48.458;7.930;2023-05-07T08:52:47;20.00;99.90
14099;DHT22;7126;48.458;7.930;2023-05-07T08:55:13;20.20;99.90
14099;DHT22;7126;48.458;7.930;2023-05-07T08:57:39;20.20;99.90
14099;DHT22;7126;48.458;7.930;2023-05-07T09:00:05;20.30;99.90
14099;DHT22;7126;48.458;7.930;2023-05-07T09:02:33;20.30;99.90
14099;DHT22;7126;48.458;7.930;2023-05-07T09:04:58;20.40;99.90
14099;DHT22;7126;48.458;7.930;2023-05-07T09:07:25;20.40;99.90
14099;DHT22;7126;48.458;7.930;2023-05-07T09:09:50;20.40;99.90
14099;DHT22;7126;48.458;7.930;2023-05-07T09:12:17;20.40;99.90
14099;DHT22;7126;48.458;7.930;2023-05-07T09:14:44;20.50;99.90
14099;DHT22;7126;48.458;7.930;2023-05-07T09:17:09;20.60;99.90
14099;DHT22;7126;48.458;7.930;2023-05-07T09:19:35;20.60;99.90
14099;DHT22;7126;48.458;7.930;2023-05-07T09:22:05;20.70;99.90
14099;DHT22;7126;48.458;7.930;2023-05-07T09:24:32;20.70;99.90
14099;DHT22;7126;48.458;7.930;2023-05-07T09:27:03;20.80;99.90
14099;DHT22;7126;48.458;7.930;2023-05-07T09:29:29;20.80;99.90
14099;DHT22;7126;48.458;7.930;2023-05-07T09:31:56;20.80;99.90
14099;DHT22;7126;48.458;7.930;2023-05-07T09:34:21;20.70;99.90
14099;DHT22;7126;48.458;7.930;2023-05-07T09:36:47;20.80;99.90
14099;DHT22;7126;48.458;7.930;2023-05-07T09:39:13;20.80;99.90
14099;DHT22;7126;48.458;7.930;2023-05-07T09:41:49;20.80;99.90
14099;DHT22;7126;48.458;7.930;2023-05-07T09:44:16;21.00;99.90
14099;DHT22;7126;48.458;7.930;2023-05-07T09:46:43;21.00;99.90
14099;DHT22;7126;48.458;7.930;2023-05-07T09:49:18;21.10;99.90
14099;DHT22;7126;48.458;7.930;2023-05-07T09:51:49;21.10;99.90
14099;DHT22;7126;48.458;7.930;2023-05-07T09:54:16;21.00;99.90
14099;DHT22;7126;48.458;7.930;2023-05-07T09:56:43;20.90;99.90
14099;DHT22;7126;48.458;7.930;2023-05-07T09:59:13;20.90;99.90
14099;DHT22;7126;48.458;7.930;2023-05-07T10:01:41;21.00;99.90
14099;DHT22;7126;48.458;7.930;2023-05-07T10:04:07;21.00;99.90
14099;DHT22;7126;48.458;7.930;2023-05-07T10:06:36;21.00;99.90
14099;DHT22;7126;48.458;7.930;2023-05-07T10:09:03;21.10;99.90
14099;DHT22;7126;48.458;7.930;2023-05-07T10:11:35;21.10;99.90
14099;DHT22;7126;48.458;7.930;2023-05-07T10:14:01;21.20;99.90
14099;DHT22;7126;48.458;7.930;2023-05-07T10:16:30;21.30;99.90
14099;DHT22;7126;48.458;7.930;2023-05-07T10:18:58;21.30;99.90
14099;DHT22;7126;48.458;7.930;2023-05-07T10:21:24;21.30;99.90
14099;DHT22;7126;48.458;7.930;2023-05-07T10:26:24;21.40;99.90
14099;DHT22;7126;48.458;7.930;2023-05-07T10:28:56;21.50;99.90
14099;DHT22;7126;48.458;7.930;2023-05-07T10:34:06;21.80;99.90
14099;DHT22;7126;48.458;7.930;2023-05-07T10:36:33;21.80;99.90
14099;DHT22;7126;48.458;7.930;2023-05-07T10:38:59;21.80;99.90
14099;DHT22;7126;48.458;7.930;2023-05-07T10:41:25;21.80;99.90
14099;DHT22;7126;48.458;7.930;2023-05-07T10:43:51;21.90;99.90
14099;DHT22;7126;48.458;7.930;2023-05-07T10:46:18;22.00;99.90
14099;DHT22;7126;48.458;7.930;2023-05-07T10:51:30;22.40;99.90
14099;DHT22;7126;48.458;7.930;2023-05-07T11:01:59;22.40;99.90
14099;DHT22;7126;48.458;7.930;2023-05-07T11:04:28;22.40;99.90
14099;DHT22;7126;48.458;7.930;2023-05-07T11:15:10;23.00;99.90
14099;DHT22;7126;48.458;7.930;2023-05-07T11:17:52;23.10;99.90
14099;DHT22;7126;48.458;7.930;2023-05-07T11:20:19;23.10;99.90
14099;DHT22;7126;48.458;7.930;2023-05-07T11:22:46;23.30;99.90
14099;DHT22;7126;48.458;7.930;2023-05-07T11:25:17;23.30;99.90
14099;DHT22;7126;48.458;7.930;2023-05-07T11:27:44;23.30;99.90
14099;DHT22;7126;48.458;7.930;2023-05-07T11:30:10;23.30;99.90
14099;DHT22;7126;48.458;7.930;2023-05-07T11:32:42;23.30;99.90
14099;DHT22;7126;48.458;7.930;2023-05-07T11:35:08;23.20;99.90
14099;DHT22;7126;48.458;7.930;2023-05-07T11:37:33;23.00;99.90
14099;DHT22;7126;48.458;7.930;2023-05-07T11:40:03;22.90;99.90
14099;DHT22;7126;48.458;7.930;2023-05-07T11:42:31;22.70;99.90
14099;DHT22;7126;48.458;7.930;2023-05-07T11:44:58;22.60;99.90
14099;DHT22;7126;48.458;7.930;2023-05-07T11:47:24;22.50;99.90
14099;DHT22;7126;48.458;7.930;2023-05-07T11:49:51;22.40;99.90
14099;DHT22;7126;48.458;7.930;2023-05-07T11:52:18;22.40;99.90
14099;DHT22;7126;48.458;7.930;2023-05-07T11:54:51;22.40;99.90
14099;DHT22;7126;48.458;7.930;2023-05-07T11:57:17;22.40;99.90
14099;DHT22;7126;48.458;7.930;2023-05-07T11:59:43;22.40;99.90
14099;DHT22;7126;48.458;7.930;2023-05-07T12:02:17;22.40;99.90
14099;DHT22;7126;48.458;7.930;2023-05-07T12:04:44;22.30;99.90
14099;DHT22;7126;48.458;7.930;2023-05-07T12:07:13;22.30;99.90
14099;DHT22;7126;48.458;7.930;2023-05-07T12:09:40;22.30;99.90
14099;DHT22;7126;48.458;7.930;2023-05-07T12:12:06;22.30;99.90
14099;DHT22;7126;48.458;7.930;2023-05-07T12:14:32;22.30;99.90
14099;DHT22;7126;48.458;7.930;2023-05-07T12:16:59;22.30;99.90
14099;DHT22;7126;48.458;7.930;2023-05-07T12:19:28;22.30;99.90
14099;DHT22;7126;48.458;7.930;2023-05-07T12:21:54;22.20;99.90
14099;DHT22;7126;48.458;7.930;2023-05-07T12:24:21;22.20;99.90
14099;DHT22;7126;48.458;7.930;2023-05-07T12:26:48;22.10;99.90
14099;DHT22;7126;48.458;7.930;2023-05-07T12:29:13;22.10;99.90
14099;DHT22;7126;48.458;7.930;2023-05-07T12:31:41;22.00;99.90
14099;DHT22;7126;48.458;7.930;2023-05-07T12:34:07;22.00;99.90
14099;DHT22;7126;48.458;7.930;2023-05-07T12:36:39;22.00;99.90
14099;DHT22;7126;48.458;7.930;2023-05-07T12:39:06;22.00;99.90
14099;DHT22;7126;48.458;7.930;2023-05-07T12:41:51;22.10;99.90
14099;DHT22;7126;48.458;7.930;2023-05-07T12:44:17;22.20;99.90
14099;DHT22;7126;48.458;7.930;2023-05-07T12:46:43;22.20;99.90
14099;DHT22;7126;48.458;7.930;2023-05-07T12:49:09;22.20;99.90
14099;DHT22;7126;48.458;7.930;2023-05-07T12:51:35;22.10;99.90
14099;DHT22;7126;48.458;7.930;2023-05-07T12:54:01;22.10;99.90
14099;DHT22;7126;48.458;7.930;2023-05-07T12:56:26;22.10;99.90
14099;DHT22;7126;48.458;7.930;2023-05-07T12:58:57;22.00;99.90
14099;DHT22;7126;48.458;7.930;2023-05-07T13:01:29;22.00;99.90
14099;DHT22;7126;48.458;7.930;2023-05-07T13:03:57;22.00;99.90
14099;DHT22;7126;48.458;7.930;2023-05-07T13:06:25;22.00;99.90
14099;DHT22;7126;48.458;7.930;2023-05-07T13:08:51;22.00;99.90
14099;DHT22;7126;48.458;7.930;2023-05-07T13:11:17;22.00;99.90
14099;DHT22;7126;48.458;7.930;2023-05-07T13:13:42;21.90;99.90
14099;DHT22;7126;48.458;7.930;2023-05-07T13:16:10;22.00;99.90
14099;DHT22;7126;48.458;7.930;2023-05-07T13:18:37;22.00;99.90
14099;DHT22;7126;48.458;7.930;2023-05-07T13:21:03;21.90;99.90
14099;DHT22;7126;48.458;7.930;2023-05-07T13:23:29;21.80;99.90
14099;DHT22;7126;48.458;7.930;2023-05-07T13:25:54;21.80;99.90
14099;DHT22;7126;48.458;7.930;2023-05-07T13:28:21;21.80;99.90
14099;DHT22;7126;48.458;7.930;2023-05-07T13:30:47;21.70;99.90
14099;DHT22;7126;48.458;7.930;2023-05-07T13:33:13;21.60;99.90
14099;DHT22;7126;48.458;7.930;2023-05-07T13:35:39;21.50;99.90
14099;DHT22;7126;48.458;7.930;2023-05-07T13:38:05;21.50;99.90
14099;DHT22;7126;48.458;7.930;2023-05-07T13:40:31;21.40;99.90
14099;DHT22;7126;48.458;7.930;2023-05-07T13:42:59;21.40;99.90
14099;DHT22;7126;48.458;7.930;2023-05-07T13:45:30;21.40;99.90
14099;DHT22;7126;48.458;7.930;2023-05-07T13:47:56;21.50;99.90
14099;DHT22;7126;48.458;7.930;2023-05-07T13:50:22;21.80;99.90
14099;DHT22;7126;48.458;7.930;2023-05-07T13:52:48;21.90;99.90
14099;DHT22;7126;48.458;7.930;2023-05-07T13:55:20;21.90;99.90
14099;DHT22;7126;48.458;7.930;2023-05-07T13:57:46;22.00;99.90
14099;DHT22;7126;48.458;7.930;2023-05-07T14:00:13;22.00;99.90
14099;DHT22;7126;48.458;7.930;2023-05-07T14:02:39;22.00;99.90
14099;DHT22;7126;48.458;7.930;2023-05-07T14:05:05;21.90;99.90
14099;DHT22;7126;48.458;7.930;2023-05-07T14:07:31;21.80;99.90
14099;DHT22;7126;48.458;7.930;2023-05-07T14:09:57;21.80;99.90
14099;DHT22;7126;48.458;7.930;2023-05-07T14:12:23;21.80;99.90
14099;DHT22;7126;48.458;7.930;2023-05-07T14:14:48;21.70;99.90
14099;DHT22;7126;48.458;7.930;2023-05-07T14:17:18;21.70;99.90
14099;DHT22;7126;48.458;7.930;2023-05-07T14:19:44;21.70;99.90
14099;DHT22;7126;48.458;7.930;2023-05-07T14:22:09;21.60;99.90
14099;DHT22;7126;48.458;7.930;2023-05-07T14:24:35;21.60;99.90
14099;DHT22;7126;48.458;7.930;2023-05-07T14:27:01;21.50;99.90
14099;DHT22;7126;48.458;7.930;2023-05-07T14:29:27;21.50;99.90
14099;DHT22;7126;48.458;7.930;2023-05-07T14:31:52;21.50;99.90
14099;DHT22;7126;48.458;7.930;2023-05-07T14:34:18;21.40;99.90
14099;DHT22;7126;48.458;7.930;2023-05-07T14:36:43;21.40;99.90
14099;DHT22;7126;48.458;7.930;2023-05-07T14:39:09;21.30;99.90
14099;DHT22;7126;48.458;7.930;2023-05-07T14:41:35;21.30;99.90
14099;DHT22;7126;48.458;7.930;2023-05-07T14:44:00;21.30;99.90
14099;DHT22;7126;48.458;7.930;2023-05-07T14:46:27;21.30;99.90
14099;DHT22;7126;48.458;7.930;2023-05-07T14:48:53;21.30;99.90
14099;DHT22;7126;48.458;7.930;2023-05-07T14:51:18;21.30;99.90
14099;DHT22;7126;48.458;7.930;2023-05-07T14:53:44;21.40;99.90
14099;DHT22;7126;48.458;7.930;2023-05-07T14:56:10;21.40;99.90
14099;DHT22;7126;48.458;7.930;2023-05-07T14:58:36;21.40;99.90
14099;DHT22;7126;48.458;7.930;2023-05-07T15:01:02;21.50;99.90
14099;DHT22;7126;48.458;7.930;2023-05-07T15:03:28;21.60;99.90
14099;DHT22;7126;48.458;7.930;2023-05-07T15:05:54;21.60;99.90
14099;DHT22;7126;48.458;7.930;2023-05-07T15:08:20;21.70;99.90
14099;DHT22;7126;48.458;7.930;2023-05-07T15:10:46;21.70;99.90
14099;DHT22;7126;48.458;7.930;2023-05-07T15:13:12;21.80;99.90
14099;DHT22;7126;48.458;7.930;2023-05-07T15:15:42;21.80;99.90
14099;DHT22;7126;48.458;7.930;2023-05-07T15:18:08;21.80;99.90
14099;DHT22;7126;48.458;7.930;2023-05-07T15:20:35;21.80;99.90
14099;DHT22;7126;48.458;7.930;2023-05-07T15:23:01;21.90;99.90
14099;DHT22;7126;48.458;7.930;2023-05-07T15:25:26;21.90;99.90
14099;DHT22;7126;48.458;7.930;2023-05-07T15:27:52;21.80;99.90
14099;DHT22;7126;48.458;7.930;2023-05-07T15:30:18;21.80;99.90
14099;DHT22;7126;48.458;7.930;2023-05-07T15:32:45;21.80;99.90
14099;DHT22;7126;48.458;7.930;2023-05-07T15:35:11;21.70;99.90
14099;DHT22;7126;48.458;7.930;2023-05-07T15:37:36;21.70;99.90
14099;DHT22;7126;48.458;7.930;2023-05-07T15:40:02;21.70;99.90
14099;DHT22;7126;48.458;7.930;2023-05-07T15:42:30;21.70;99.90
14099;DHT22;7126;48.458;7.930;2023-05-07T15:44:55;21.70;99.90
14099;DHT22;7126;48.458;7.930;2023-05-07T15:47:21;21.80;99.90
14099;DHT22;7126;48.458;7.930;2023-05-07T15:49:47;21.80;99.90
14099;DHT22;7126;48.458;7.930;2023-05-07T15:52:12;21.80;99.90
14099;DHT22;7126;48.458;7.930;2023-05-07T15:54:41;21.70;99.90
14099;DHT22;7126;48.458;7.930;2023-05-07T15:57:07;21.80;99.90
14099;DHT22;7126;48.458;7.930;2023-05-07T15:59:33;21.90;99.90
14099;DHT22;7126;48.458;7.930;2023-05-07T16:02:00;21.90;99.90
14099;DHT22;7126;48.458;7.930;2023-05-07T16:04:26;21.90;99.90